sensor_id;sensor_type;location;lat;lon;timestamp;P1;durP1;ratioP1;P2;durP2;ratioP2
74538;SDS011;66042;51.090;-115.340;2023-08-30T00:01:15;11.20;;;5.70;;
74538;SDS011;66042;51.090;-115.340;2023-08-30T00:03:41;9.80;;;5.90;;
74538;SDS011;66042;51.090;-115.340;2023-08-30T00:06:09;8.80;;;6.00;;
74538;SDS011;66042;51.090;-115.340;2023-08-30T00:08:35;10.40;;;6.20;;
74538;SDS011;66042;51.090;-115.340;2023-08-30T00:11:02;7.60;;;5.80;;
74538;SDS011;66042;51.090;-115.340;2023-08-30T00:13:31;7.00;;;5.60;;
74538;SDS011;66042;51.090;-115.340;2023-08-30T00:15:59;8.60;;;5.90;;
74538;SDS011;66042;51.090;-115.340;2023-08-30T00:18:29;8.80;;;5.60;;
74538;SDS011;66042;51.090;-115.340;2023-08-30T00:20:56;10.30;;;5.60;;
74538;SDS011;66042;51.090;-115.340;2023-08-30T00:23:23;8.60;;;5.30;;
74538;SDS011;66042;51.090;-115.340;2023-08-30T00:25:51;9.60;;;5.50;;
74538;SDS011;66042;51.090;-115.340;2023-08-30T00:28:19;7.50;;;5.70;;
74538;SDS011;66042;51.090;-115.340;2023-08-30T00:30:46;9.70;;;5.50;;
74538;SDS011;66042;51.090;-115.340;2023-08-30T00:33:12;8.40;;;5.20;;
74538;SDS011;66042;51.090;-115.340;2023-08-30T00:35:39;9.00;;;5.60;;
74538;SDS011;66042;51.090;-115.340;2023-08-30T00:38:06;7.50;;;5.40;;
74538;SDS011;66042;51.090;-115.340;2023-08-30T00:40:39;8.30;;;5.50;;
74538;SDS011;66042;51.090;-115.340;2023-08-30T00:43:07;8.00;;;5.70;;
74538;SDS011;66042;51.090;-115.340;2023-08-30T00:45:35;8.30;;;4.90;;
74538;SDS011;66042;51.090;-115.340;2023-08-30T00:48:05;7.90;;;5.00;;
74538;SDS011;66042;51.090;-115.340;2023-08-30T00:50:33;6.90;;;4.70;;
74538;SDS011;66042;51.090;-115.340;2023-08-30T00:53:00;8.50;;;5.50;;
74538;SDS011;66042;51.090;-115.340;2023-08-30T00:55:35;7.80;;;5.40;;
74538;SDS011;66042;51.090;-115.340;2023-08-30T00:58:03;10.30;;;5.30;;
74538;SDS011;66042;51.090;-115.340;2023-08-30T01:00:31;8.70;;;5.70;;
74538;SDS011;66042;51.090;-115.340;2023-08-30T01:02:59;8.20;;;5.00;;
74538;SDS011;66042;51.090;-115.340;2023-08-30T01:05:26;8.90;;;5.60;;
74538;SDS011;66042;51.090;-115.340;2023-08-30T01:07:53;10.90;;;5.20;;
74538;SDS011;66042;51.090;-115.340;2023-08-30T01:10:31;8.10;;;5.00;;
74538;SDS011;66042;51.090;-115.340;2023-08-30T01:13:21;9.40;;;5.20;;
74538;SDS011;66042;51.090;-115.340;2023-08-30T01:15:48;9.70;;;4.80;;
74538;SDS011;66042;51.090;-115.340;2023-08-30T01:18:22;9.50;;;5.50;;
74538;SDS011;66042;51.090;-115.340;2023-08-30T01:20:52;8.90;;;5.20;;
74538;SDS011;66042;51.090;-115.340;2023-08-30T01:23:49;8.40;;;5.30;;
74538;SDS011;66042;51.090;-115.340;2023-08-30T01:28:59;7.90;;;5.10;;
74538;SDS011;66042;51.090;-115.340;2023-08-30T01:31:28;12.10;;;4.70;;
74538;SDS011;66042;51.090;-115.340;2023-08-30T01:34:01;8.10;;;4.80;;
74538;SDS011;66042;51.090;-115.340;2023-08-30T01:36:30;9.70;;;5.20;;
74538;SDS011;66042;51.090;-115.340;2023-08-30T01:38:58;8.80;;;5.20;;
74538;SDS011;66042;51.090;-115.340;2023-08-30T01:41:27;9.50;;;5.00;;
74538;SDS011;66042;51.090;-115.340;2023-08-30T01:43:56;9.70;;;5.40;;
74538;SDS011;66042;51.090;-115.340;2023-08-30T01:46:25;8.50;;;5.30;;
74538;SDS011;66042;51.090;-115.340;2023-08-30T01:48:54;9.30;;;4.90;;
74538;SDS011;66042;51.090;-115.340;2023-08-30T01:51:23;10.90;;;5.00;;
74538;SDS011;66042;51.090;-115.340;2023-08-30T01:53:52;8.50;;;5.10;;
74538;SDS011;66042;51.090;-115.340;2023-08-30T01:56:21;11.30;;;5.80;;
74538;SDS011;66042;51.090;-115.340;2023-08-30T01:58:48;11.90;;;5.30;;
74538;SDS011;66042;51.090;-115.340;2023-08-30T02:01:15;8.60;;;5.10;;
74538;SDS011;66042;51.090;-115.340;2023-08-30T02:03:45;10.80;;;5.40;;
74538;SDS011;66042;51.090;-115.340;2023-08-30T02:06:17;8.00;;;5.20;;
74538;SDS011;66042;51.090;-115.340;2023-08-30T02:09:24;9.70;;;5.60;;
74538;SDS011;66042;51.090;-115.340;2023-08-30T02:11:55;9.00;;;5.20;;
74538;SDS011;66042;51.090;-115.340;2023-08-30T02:14:27;10.70;;;5.30;;
74538;SDS011;66042;51.090;-115.340;2023-08-30T02:16:56;10.30;;;5.40;;
74538;SDS011;66042;51.090;-115.340;2023-08-30T02:19:23;8.10;;;5.30;;
74538;SDS011;66042;51.090;-115.340;2023-08-30T02:21:50;8.90;;;5.40;;
74538;SDS011;66042;51.090;-115.340;2023-08-30T02:24:17;11.40;;;5.20;;
74538;SDS011;66042;51.090;-115.340;2023-08-30T02:26:44;10.30;;;5.90;;
74538;SDS011;66042;51.090;-115.340;2023-08-30T02:29:11;10.20;;;5.60;;
74538;SDS011;66042;51.090;-115.340;2023-08-30T02:31:39;12.70;;;5.60;;
74538;SDS011;66042;51.090;-115.340;2023-08-30T02:34:06;11.50;;;6.10;;
74538;SDS011;66042;51.090;-115.340;2023-08-30T02:36:33;11.30;;;5.80;;
74538;SDS011;66042;51.090;-115.340;2023-08-30T02:39:00;12.50;;;6.00;;
74538;SDS011;66042;51.090;-115.340;2023-08-30T02:41:27;12.20;;;5.40;;
74538;SDS011;66042;51.090;-115.340;2023-08-30T02:43:54;14.30;;;5.40;;
74538;SDS011;66042;51.090;-115.340;2023-08-30T02:46:20;10.60;;;5.70;;
74538;SDS011;66042;51.090;-115.340;2023-08-30T02:48:48;9.00;;;5.10;;
74538;SDS011;66042;51.090;-115.340;2023-08-30T02:51:15;10.60;;;5.00;;
74538;SDS011;66042;51.090;-115.340;2023-08-30T02:53:43;12.70;;;5.40;;
74538;SDS011;66042;51.090;-115.340;2023-08-30T02:56:09;10.00;;;4.70;;
74538;SDS011;66042;51.090;-115.340;2023-08-30T02:58:37;8.50;;;5.60;;
74538;SDS011;66042;51.090;-115.340;2023-08-30T03:01:03;10.90;;;5.50;;
74538;SDS011;66042;51.090;-115.340;2023-08-30T03:03:31;11.80;;;5.50;;
74538;SDS011;66042;51.090;-115.340;2023-08-30T03:05:57;11.70;;;5.90;;
74538;SDS011;66042;51.090;-115.340;2023-08-30T03:08:25;8.40;;;5.20;;
74538;SDS011;66042;51.090;-115.340;2023-08-30T03:10:51;8.50;;;5.60;;
74538;SDS011;66042;51.090;-115.340;2023-08-30T03:13:19;8.50;;;5.40;;
74538;SDS011;66042;51.090;-115.340;2023-08-30T03:15:46;10.70;;;5.10;;
74538;SDS011;66042;51.090;-115.340;2023-08-30T03:18:13;10.90;;;5.60;;
74538;SDS011;66042;51.090;-115.340;2023-08-30T03:20:39;12.50;;;5.30;;
74538;SDS011;66042;51.090;-115.340;2023-08-30T03:23:06;8.50;;;5.20;;
74538;SDS011;66042;51.090;-115.340;2023-08-30T03:25:33;10.10;;;5.60;;
74538;SDS011;66042;51.090;-115.340;2023-08-30T03:27:59;9.90;;;5.80;;
74538;SDS011;66042;51.090;-115.340;2023-08-30T03:30:26;8.10;;;5.40;;
74538;SDS011;66042;51.090;-115.340;2023-08-30T03:32:53;8.70;;;5.30;;
74538;SDS011;66042;51.090;-115.340;2023-08-30T03:35:20;10.20;;;5.60;;
74538;SDS011;66042;51.090;-115.340;2023-08-30T03:37:47;9.20;;;5.00;;
74538;SDS011;66042;51.090;-115.340;2023-08-30T03:40:14;11.70;;;5.10;;
74538;SDS011;66042;51.090;-115.340;2023-08-30T03:42:40;10.50;;;5.90;;
74538;SDS011;66042;51.090;-115.340;2023-08-30T03:45:07;10.30;;;5.80;;
74538;SDS011;66042;51.090;-115.340;2023-08-30T03:47:34;10.60;;;6.00;;
74538;SDS011;66042;51.090;-115.340;2023-08-30T03:50:02;12.40;;;5.50;;
74538;SDS011;66042;51.090;-115.340;2023-08-30T03:52:29;8.90;;;5.50;;
74538;SDS011;66042;51.090;-115.340;2023-08-30T03:54:55;10.90;;;5.60;;
74538;SDS011;66042;51.090;-115.340;2023-08-30T03:57:22;8.80;;;5.20;;
74538;SDS011;66042;51.090;-115.340;2023-08-30T03:59:49;10.90;;;5.60;;
74538;SDS011;66042;51.090;-115.340;2023-08-30T04:02:15;12.10;;;6.10;;
74538;SDS011;66042;51.090;-115.340;2023-08-30T04:04:42;9.60;;;5.00;;
74538;SDS011;66042;51.090;-115.340;2023-08-30T04:07:09;11.80;;;6.20;;
74538;SDS011;66042;51.090;-115.340;2023-08-30T04:09:35;11.90;;;6.20;;
74538;SDS011;66042;51.090;-115.340;2023-08-30T04:12:02;10.30;;;6.00;;
74538;SDS011;66042;51.090;-115.340;2023-08-30T04:14:31;11.80;;;6.10;;
74538;SDS011;66042;51.090;-115.340;2023-08-30T04:16:57;17.20;;;6.30;;
74538;SDS011;66042;51.090;-115.340;2023-08-30T04:19:24;9.60;;;5.50;;
74538;SDS011;66042;51.090;-115.340;2023-08-30T04:21:51;11.70;;;5.90;;
74538;SDS011;66042;51.090;-115.340;2023-08-30T04:24:18;11.90;;;6.40;;
74538;SDS011;66042;51.090;-115.340;2023-08-30T04:26:44;10.30;;;5.70;;
74538;SDS011;66042;51.090;-115.340;2023-08-30T04:29:15;10.60;;;6.00;;
74538;SDS011;66042;51.090;-115.340;2023-08-30T04:31:43;10.10;;;5.80;;
74538;SDS011;66042;51.090;-115.340;2023-08-30T04:34:10;12.20;;;5.60;;
74538;SDS011;66042;51.090;-115.340;2023-08-30T04:36:36;10.40;;;6.40;;
74538;SDS011;66042;51.090;-115.340;2023-08-30T04:39:03;10.00;;;6.10;;
74538;SDS011;66042;51.090;-115.340;2023-08-30T04:41:30;12.70;;;6.50;;
74538;SDS011;66042;51.090;-115.340;2023-08-30T04:43:59;10.20;;;5.40;;
74538;SDS011;66042;51.090;-115.340;2023-08-30T04:46:26;14.10;;;5.80;;
74538;SDS011;66042;51.090;-115.340;2023-08-30T04:48:52;11.80;;;5.60;;
74538;SDS011;66042;51.090;-115.340;2023-08-30T04:51:21;10.30;;;6.00;;
74538;SDS011;66042;51.090;-115.340;2023-08-30T04:53:47;9.20;;;5.50;;
74538;SDS011;66042;51.090;-115.340;2023-08-30T04:56:14;10.90;;;6.10;;
74538;SDS011;66042;51.090;-115.340;2023-08-30T04:58:44;14.50;;;5.40;;
74538;SDS011;66042;51.090;-115.340;2023-08-30T05:01:10;11.60;;;6.10;;
74538;SDS011;66042;51.090;-115.340;2023-08-30T05:03:39;13.20;;;6.10;;
74538;SDS011;66042;51.090;-115.340;2023-08-30T05:06:06;10.50;;;5.50;;
74538;SDS011;66042;51.090;-115.340;2023-08-30T05:08:32;15.00;;;5.90;;
74538;SDS011;66042;51.090;-115.340;2023-08-30T05:10:59;11.80;;;6.20;;
74538;SDS011;66042;51.090;-115.340;2023-08-30T05:13:26;11.50;;;6.00;;
74538;SDS011;66042;51.090;-115.340;2023-08-30T05:15:53;10.40;;;6.20;;
74538;SDS011;66042;51.090;-115.340;2023-08-30T05:18:20;12.90;;;5.90;;
74538;SDS011;66042;51.090;-115.340;2023-08-30T05:20:47;10.90;;;6.30;;
74538;SDS011;66042;51.090;-115.340;2023-08-30T05:23:14;12.50;;;6.10;;
74538;SDS011;66042;51.090;-115.340;2023-08-30T05:25:40;10.00;;;6.10;;
74538;SDS011;66042;51.090;-115.340;2023-08-30T05:28:07;10.80;;;6.10;;
74538;SDS011;66042;51.090;-115.340;2023-08-30T05:30:33;10.80;;;6.10;;
74538;SDS011;66042;51.090;-115.340;2023-08-30T05:33:00;9.90;;;5.70;;
74538;SDS011;66042;51.090;-115.340;2023-08-30T05:35:28;13.00;;;6.40;;
74538;SDS011;66042;51.090;-115.340;2023-08-30T05:37:55;13.00;;;6.40;;
74538;SDS011;66042;51.090;-115.340;2023-08-30T05:40:21;10.80;;;6.20;;
74538;SDS011;66042;51.090;-115.340;2023-08-30T05:42:49;13.30;;;6.70;;
74538;SDS011;66042;51.090;-115.340;2023-08-30T05:45:16;14.10;;;6.90;;
74538;SDS011;66042;51.090;-115.340;2023-08-30T05:47:43;12.90;;;6.00;;
74538;SDS011;66042;51.090;-115.340;2023-08-30T05:50:10;11.00;;;6.40;;
74538;SDS011;66042;51.090;-115.340;2023-08-30T05:52:37;12.10;;;6.40;;
74538;SDS011;66042;51.090;-115.340;2023-08-30T05:55:10;11.90;;;6.70;;
74538;SDS011;66042;51.090;-115.340;2023-08-30T05:57:37;10.80;;;6.00;;
74538;SDS011;66042;51.090;-115.340;2023-08-30T06:00:04;13.90;;;7.00;;
74538;SDS011;66042;51.090;-115.340;2023-08-30T06:02:39;14.60;;;6.90;;
74538;SDS011;66042;51.090;-115.340;2023-08-30T06:05:06;10.60;;;5.90;;
74538;SDS011;66042;51.090;-115.340;2023-08-30T06:07:34;9.90;;;5.50;;
74538;SDS011;66042;51.090;-115.340;2023-08-30T06:10:00;12.00;;;6.10;;
74538;SDS011;66042;51.090;-115.340;2023-08-30T06:12:28;12.60;;;6.10;;
74538;SDS011;66042;51.090;-115.340;2023-08-30T06:14:55;11.50;;;6.20;;
74538;SDS011;66042;51.090;-115.340;2023-08-30T06:17:22;12.50;;;6.50;;
74538;SDS011;66042;51.090;-115.340;2023-08-30T06:19:48;18.50;;;6.00;;
74538;SDS011;66042;51.090;-115.340;2023-08-30T06:22:15;11.20;;;5.60;;
74538;SDS011;66042;51.090;-115.340;2023-08-30T06:24:42;10.50;;;6.40;;
74538;SDS011;66042;51.090;-115.340;2023-08-30T06:27:10;10.90;;;6.50;;
74538;SDS011;66042;51.090;-115.340;2023-08-30T06:29:37;11.10;;;6.20;;
74538;SDS011;66042;51.090;-115.340;2023-08-30T06:32:05;12.90;;;6.60;;
74538;SDS011;66042;51.090;-115.340;2023-08-30T06:34:32;12.70;;;6.10;;
74538;SDS011;66042;51.090;-115.340;2023-08-30T06:36:59;13.10;;;5.80;;
74538;SDS011;66042;51.090;-115.340;2023-08-30T06:39:25;11.40;;;6.20;;
74538;SDS011;66042;51.090;-115.340;2023-08-30T06:41:58;13.50;;;6.10;;
74538;SDS011;66042;51.090;-115.340;2023-08-30T06:44:25;11.60;;;6.00;;
74538;SDS011;66042;51.090;-115.340;2023-08-30T06:46:51;11.40;;;5.70;;
74538;SDS011;66042;51.090;-115.340;2023-08-30T06:49:18;9.90;;;5.80;;
74538;SDS011;66042;51.090;-115.340;2023-08-30T06:51:45;11.80;;;6.20;;
74538;SDS011;66042;51.090;-115.340;2023-08-30T06:54:13;9.50;;;6.50;;
74538;SDS011;66042;51.090;-115.340;2023-08-30T06:56:40;11.70;;;6.70;;
74538;SDS011;66042;51.090;-115.340;2023-08-30T06:59:07;10.70;;;6.30;;
74538;SDS011;66042;51.090;-115.340;2023-08-30T07:01:33;12.90;;;6.40;;
74538;SDS011;66042;51.090;-115.340;2023-08-30T07:04:00;10.60;;;6.00;;
74538;SDS011;66042;51.090;-115.340;2023-08-30T07:06:27;10.10;;;5.90;;
74538;SDS011;66042;51.090;-115.340;2023-08-30T07:08:56;11.70;;;6.50;;
74538;SDS011;66042;51.090;-115.340;2023-08-30T07:11:24;10.60;;;5.80;;
74538;SDS011;66042;51.090;-115.340;2023-08-30T07:13:50;11.80;;;6.10;;
74538;SDS011;66042;51.090;-115.340;2023-08-30T07:16:18;10.50;;;6.30;;
74538;SDS011;66042;51.090;-115.340;2023-08-30T07:18:45;12.50;;;6.50;;
74538;SDS011;66042;51.090;-115.340;2023-08-30T07:21:11;10.80;;;6.50;;
74538;SDS011;66042;51.090;-115.340;2023-08-30T07:23:38;11.90;;;6.00;;
74538;SDS011;66042;51.090;-115.340;2023-08-30T07:26:04;11.70;;;6.30;;
74538;SDS011;66042;51.090;-115.340;2023-08-30T07:28:31;11.30;;;6.30;;
74538;SDS011;66042;51.090;-115.340;2023-08-30T07:31:05;14.00;;;6.90;;
74538;SDS011;66042;51.090;-115.340;2023-08-30T07:33:39;11.00;;;6.50;;
74538;SDS011;66042;51.090;-115.340;2023-08-30T07:36:07;12.70;;;6.10;;
74538;SDS011;66042;51.090;-115.340;2023-08-30T07:38:34;14.70;;;6.60;;
74538;SDS011;66042;51.090;-115.340;2023-08-30T07:41:01;13.40;;;6.80;;
74538;SDS011;66042;51.090;-115.340;2023-08-30T07:43:28;10.80;;;6.40;;
74538;SDS011;66042;51.090;-115.340;2023-08-30T07:45:55;10.70;;;6.00;;
74538;SDS011;66042;51.090;-115.340;2023-08-30T07:48:22;11.60;;;6.50;;
74538;SDS011;66042;51.090;-115.340;2023-08-30T07:50:49;13.00;;;7.10;;
74538;SDS011;66042;51.090;-115.340;2023-08-30T07:53:16;14.20;;;6.40;;
74538;SDS011;66042;51.090;-115.340;2023-08-30T07:55:48;12.20;;;7.00;;
74538;SDS011;66042;51.090;-115.340;2023-08-30T07:58:17;11.00;;;7.10;;
74538;SDS011;66042;51.090;-115.340;2023-08-30T08:00:44;13.30;;;6.20;;
74538;SDS011;66042;51.090;-115.340;2023-08-30T08:03:11;11.50;;;6.30;;
74538;SDS011;66042;51.090;-115.340;2023-08-30T08:05:38;11.00;;;6.40;;
74538;SDS011;66042;51.090;-115.340;2023-08-30T08:08:05;10.60;;;6.30;;
74538;SDS011;66042;51.090;-115.340;2023-08-30T08:10:33;14.00;;;6.90;;
74538;SDS011;66042;51.090;-115.340;2023-08-30T08:13:00;11.70;;;6.70;;
74538;SDS011;66042;51.090;-115.340;2023-08-30T08:15:28;12.20;;;6.50;;
74538;SDS011;66042;51.090;-115.340;2023-08-30T08:18:02;11.50;;;6.60;;
74538;SDS011;66042;51.090;-115.340;2023-08-30T08:20:30;14.00;;;6.60;;
74538;SDS011;66042;51.090;-115.340;2023-08-30T08:22:56;12.90;;;6.80;;
74538;SDS011;66042;51.090;-115.340;2023-08-30T08:25:23;14.70;;;6.90;;
74538;SDS011;66042;51.090;-115.340;2023-08-30T08:27:50;11.10;;;6.60;;
74538;SDS011;66042;51.090;-115.340;2023-08-30T08:30:18;14.50;;;6.90;;
74538;SDS011;66042;51.090;-115.340;2023-08-30T08:32:46;11.40;;;6.80;;
74538;SDS011;66042;51.090;-115.340;2023-08-30T08:35:14;13.60;;;7.20;;
74538;SDS011;66042;51.090;-115.340;2023-08-30T08:37:41;12.40;;;6.40;;
74538;SDS011;66042;51.090;-115.340;2023-08-30T08:40:08;12.00;;;6.40;;
74538;SDS011;66042;51.090;-115.340;2023-08-30T08:42:36;12.00;;;6.90;;
74538;SDS011;66042;51.090;-115.340;2023-08-30T08:45:04;14.10;;;7.00;;
74538;SDS011;66042;51.090;-115.340;2023-08-30T08:47:32;12.00;;;6.70;;
74538;SDS011;66042;51.090;-115.340;2023-08-30T08:49:59;12.50;;;6.70;;
74538;SDS011;66042;51.090;-115.340;2023-08-30T08:52:29;12.10;;;7.10;;
74538;SDS011;66042;51.090;-115.340;2023-08-30T08:54:57;11.60;;;6.90;;
74538;SDS011;66042;51.090;-115.340;2023-08-30T08:57:26;11.50;;;7.30;;
74538;SDS011;66042;51.090;-115.340;2023-08-30T08:59:57;16.00;;;7.00;;
74538;SDS011;66042;51.090;-115.340;2023-08-30T09:02:25;14.80;;;7.50;;
74538;SDS011;66042;51.090;-115.340;2023-08-30T09:04:52;10.50;;;6.40;;
74538;SDS011;66042;51.090;-115.340;2023-08-30T09:07:20;12.30;;;7.20;;
74538;SDS011;66042;51.090;-115.340;2023-08-30T09:09:47;13.30;;;7.10;;
74538;SDS011;66042;51.090;-115.340;2023-08-30T09:12:15;11.30;;;6.80;;
74538;SDS011;66042;51.090;-115.340;2023-08-30T09:14:52;13.20;;;6.20;;
74538;SDS011;66042;51.090;-115.340;2023-08-30T09:17:21;13.00;;;7.20;;
74538;SDS011;66042;51.090;-115.340;2023-08-30T09:19:48;12.90;;;7.30;;
74538;SDS011;66042;51.090;-115.340;2023-08-30T09:22:15;11.80;;;7.00;;
74538;SDS011;66042;51.090;-115.340;2023-08-30T09:24:42;12.60;;;6.60;;
74538;SDS011;66042;51.090;-115.340;2023-08-30T09:27:08;12.60;;;6.60;;
74538;SDS011;66042;51.090;-115.340;2023-08-30T09:29:35;13.00;;;7.00;;
74538;SDS011;66042;51.090;-115.340;2023-08-30T09:32:02;13.30;;;7.40;;
74538;SDS011;66042;51.090;-115.340;2023-08-30T09:34:30;13.10;;;7.50;;
74538;SDS011;66042;51.090;-115.340;2023-08-30T09:36:57;11.70;;;7.00;;
74538;SDS011;66042;51.090;-115.340;2023-08-30T09:39:27;12.10;;;7.00;;
74538;SDS011;66042;51.090;-115.340;2023-08-30T09:41:54;12.50;;;7.30;;
74538;SDS011;66042;51.090;-115.340;2023-08-30T09:44:21;11.10;;;7.10;;
74538;SDS011;66042;51.090;-115.340;2023-08-30T09:46:54;13.30;;;7.40;;
74538;SDS011;66042;51.090;-115.340;2023-08-30T09:49:26;11.40;;;6.50;;
74538;SDS011;66042;51.090;-115.340;2023-08-30T09:51:54;11.80;;;6.40;;
74538;SDS011;66042;51.090;-115.340;2023-08-30T09:54:23;11.00;;;6.60;;
74538;SDS011;66042;51.090;-115.340;2023-08-30T09:56:51;11.20;;;6.50;;
74538;SDS011;66042;51.090;-115.340;2023-08-30T09:59:19;11.30;;;6.90;;
74538;SDS011;66042;51.090;-115.340;2023-08-30T10:01:47;13.80;;;7.30;;
74538;SDS011;66042;51.090;-115.340;2023-08-30T10:04:15;12.20;;;6.70;;
74538;SDS011;66042;51.090;-115.340;2023-08-30T10:06:43;14.50;;;7.80;;
74538;SDS011;66042;51.090;-115.340;2023-08-30T10:09:11;14.20;;;7.30;;
74538;SDS011;66042;51.090;-115.340;2023-08-30T10:11:39;11.20;;;6.90;;
74538;SDS011;66042;51.090;-115.340;2023-08-30T10:14:06;13.20;;;7.30;;
74538;SDS011;66042;51.090;-115.340;2023-08-30T10:16:46;13.00;;;6.70;;
74538;SDS011;66042;51.090;-115.340;2023-08-30T10:19:29;14.00;;;7.10;;
74538;SDS011;66042;51.090;-115.340;2023-08-30T10:22:05;12.70;;;7.00;;
74538;SDS011;66042;51.090;-115.340;2023-08-30T10:25:01;13.60;;;7.00;;
74538;SDS011;66042;51.090;-115.340;2023-08-30T10:27:31;12.90;;;7.00;;
74538;SDS011;66042;51.090;-115.340;2023-08-30T10:30:02;12.50;;;6.90;;
74538;SDS011;66042;51.090;-115.340;2023-08-30T10:32:42;10.70;;;6.70;;
74538;SDS011;66042;51.090;-115.340;2023-08-30T10:35:18;14.10;;;7.20;;
74538;SDS011;66042;51.090;-115.340;2023-08-30T10:37:55;13.30;;;7.40;;
74538;SDS011;66042;51.090;-115.340;2023-08-30T10:40:25;13.80;;;7.10;;
74538;SDS011;66042;51.090;-115.340;2023-08-30T10:43:04;12.50;;;7.30;;
74538;SDS011;66042;51.090;-115.340;2023-08-30T10:45:31;14.20;;;7.60;;
74538;SDS011;66042;51.090;-115.340;2023-08-30T10:47:59;13.10;;;7.40;;
74538;SDS011;66042;51.090;-115.340;2023-08-30T10:50:30;11.80;;;6.40;;
74538;SDS011;66042;51.090;-115.340;2023-08-30T10:52:58;12.80;;;7.10;;
74538;SDS011;66042;51.090;-115.340;2023-08-30T10:55:25;12.20;;;6.40;;
74538;SDS011;66042;51.090;-115.340;2023-08-30T10:58:03;12.40;;;6.50;;
74538;SDS011;66042;51.090;-115.340;2023-08-30T11:00:33;13.30;;;6.70;;
74538;SDS011;66042;51.090;-115.340;2023-08-30T11:03:01;12.50;;;7.10;;
74538;SDS011;66042;51.090;-115.340;2023-08-30T11:05:29;13.60;;;7.20;;
74538;SDS011;66042;51.090;-115.340;2023-08-30T11:07:56;12.00;;;6.80;;
74538;SDS011;66042;51.090;-115.340;2023-08-30T11:10:23;12.30;;;7.10;;
74538;SDS011;66042;51.090;-115.340;2023-08-30T11:12:51;12.60;;;7.20;;
74538;SDS011;66042;51.090;-115.340;2023-08-30T11:15:18;14.70;;;7.40;;
74538;SDS011;66042;51.090;-115.340;2023-08-30T11:17:47;11.20;;;6.80;;
74538;SDS011;66042;51.090;-115.340;2023-08-30T11:20:16;11.30;;;7.10;;
74538;SDS011;66042;51.090;-115.340;2023-08-30T11:22:47;13.50;;;6.60;;
74538;SDS011;66042;51.090;-115.340;2023-08-30T11:25:15;12.70;;;7.20;;
74538;SDS011;66042;51.090;-115.340;2023-08-30T11:27:42;13.70;;;7.90;;
74538;SDS011;66042;51.090;-115.340;2023-08-30T11:30:10;13.80;;;6.90;;
74538;SDS011;66042;51.090;-115.340;2023-08-30T11:32:39;12.00;;;7.50;;
74538;SDS011;66042;51.090;-115.340;2023-08-30T11:35:08;12.90;;;7.40;;
74538;SDS011;66042;51.090;-115.340;2023-08-30T11:37:36;12.50;;;7.30;;
74538;SDS011;66042;51.090;-115.340;2023-08-30T11:40:03;15.10;;;7.70;;
74538;SDS011;66042;51.090;-115.340;2023-08-30T11:42:32;12.70;;;7.30;;
74538;SDS011;66042;51.090;-115.340;2023-08-30T11:44:59;14.60;;;7.60;;
74538;SDS011;66042;51.090;-115.340;2023-08-30T11:47:27;11.70;;;6.70;;
74538;SDS011;66042;51.090;-115.340;2023-08-30T11:49:56;14.30;;;7.60;;
74538;SDS011;66042;51.090;-115.340;2023-08-30T11:52:24;12.30;;;7.10;;
74538;SDS011;66042;51.090;-115.340;2023-08-30T11:54:53;12.40;;;6.40;;
74538;SDS011;66042;51.090;-115.340;2023-08-30T11:57:21;11.90;;;6.60;;
74538;SDS011;66042;51.090;-115.340;2023-08-30T11:59:48;11.80;;;6.50;;
74538;SDS011;66042;51.090;-115.340;2023-08-30T12:02:16;13.30;;;7.00;;
74538;SDS011;66042;51.090;-115.340;2023-08-30T12:04:45;13.40;;;7.50;;
74538;SDS011;66042;51.090;-115.340;2023-08-30T12:07:26;12.40;;;7.20;;
74538;SDS011;66042;51.090;-115.340;2023-08-30T12:10:04;14.60;;;6.60;;
74538;SDS011;66042;51.090;-115.340;2023-08-30T12:12:31;11.20;;;7.10;;
74538;SDS011;66042;51.090;-115.340;2023-08-30T12:14:58;15.00;;;7.10;;
74538;SDS011;66042;51.090;-115.340;2023-08-30T12:17:25;12.20;;;7.20;;
74538;SDS011;66042;51.090;-115.340;2023-08-30T12:19:58;13.40;;;7.80;;
74538;SDS011;66042;51.090;-115.340;2023-08-30T12:22:45;11.80;;;7.20;;
74538;SDS011;66042;51.090;-115.340;2023-08-30T12:25:21;12.60;;;7.00;;
74538;SDS011;66042;51.090;-115.340;2023-08-30T12:27:52;11.90;;;7.30;;
74538;SDS011;66042;51.090;-115.340;2023-08-30T12:30:19;13.20;;;7.20;;
74538;SDS011;66042;51.090;-115.340;2023-08-30T12:32:46;13.80;;;7.90;;
74538;SDS011;66042;51.090;-115.340;2023-08-30T12:35:14;12.50;;;7.00;;
74538;SDS011;66042;51.090;-115.340;2023-08-30T12:37:41;14.60;;;7.50;;
74538;SDS011;66042;51.090;-115.340;2023-08-30T12:40:08;13.30;;;7.40;;
74538;SDS011;66042;51.090;-115.340;2023-08-30T12:42:35;14.90;;;7.30;;
74538;SDS011;66042;51.090;-115.340;2023-08-30T12:45:02;13.50;;;7.50;;
74538;SDS011;66042;51.090;-115.340;2023-08-30T12:47:29;13.50;;;7.30;;
74538;SDS011;66042;51.090;-115.340;2023-08-30T12:49:56;13.70;;;7.20;;
74538;SDS011;66042;51.090;-115.340;2023-08-30T12:52:23;11.00;;;7.70;;
74538;SDS011;66042;51.090;-115.340;2023-08-30T12:54:50;11.50;;;7.50;;
74538;SDS011;66042;51.090;-115.340;2023-08-30T12:57:18;15.60;;;8.00;;
74538;SDS011;66042;51.090;-115.340;2023-08-30T12:59:45;12.60;;;6.80;;
74538;SDS011;66042;51.090;-115.340;2023-08-30T13:02:13;16.30;;;8.20;;
74538;SDS011;66042;51.090;-115.340;2023-08-30T13:04:39;14.70;;;7.50;;
74538;SDS011;66042;51.090;-115.340;2023-08-30T13:07:06;12.00;;;6.80;;
74538;SDS011;66042;51.090;-115.340;2023-08-30T13:09:33;11.50;;;6.50;;
74538;SDS011;66042;51.090;-115.340;2023-08-30T13:12:00;12.10;;;7.00;;
74538;SDS011;66042;51.090;-115.340;2023-08-30T13:14:28;12.40;;;6.80;;
74538;SDS011;66042;51.090;-115.340;2023-08-30T13:16:55;11.90;;;7.50;;
74538;SDS011;66042;51.090;-115.340;2023-08-30T13:19:22;11.70;;;7.10;;
74538;SDS011;66042;51.090;-115.340;2023-08-30T13:21:49;13.50;;;7.80;;
74538;SDS011;66042;51.090;-115.340;2023-08-30T13:24:16;11.20;;;6.80;;
74538;SDS011;66042;51.090;-115.340;2023-08-30T13:26:43;11.80;;;7.20;;
74538;SDS011;66042;51.090;-115.340;2023-08-30T13:29:10;12.80;;;7.30;;
74538;SDS011;66042;51.090;-115.340;2023-08-30T13:31:37;14.80;;;8.20;;
74538;SDS011;66042;51.090;-115.340;2023-08-30T13:34:04;14.90;;;7.70;;
74538;SDS011;66042;51.090;-115.340;2023-08-30T13:36:31;11.50;;;7.10;;
74538;SDS011;66042;51.090;-115.340;2023-08-30T13:38:58;12.80;;;7.20;;
74538;SDS011;66042;51.090;-115.340;2023-08-30T13:41:25;12.80;;;7.30;;
74538;SDS011;66042;51.090;-115.340;2023-08-30T13:43:52;13.00;;;7.20;;
74538;SDS011;66042;51.090;-115.340;2023-08-30T13:46:19;14.10;;;7.60;;
74538;SDS011;66042;51.090;-115.340;2023-08-30T13:48:46;13.50;;;7.30;;
74538;SDS011;66042;51.090;-115.340;2023-08-30T13:51:14;15.00;;;7.40;;
74538;SDS011;66042;51.090;-115.340;2023-08-30T13:53:48;12.50;;;7.20;;
74538;SDS011;66042;51.090;-115.340;2023-08-30T13:56:15;14.20;;;7.60;;
74538;SDS011;66042;51.090;-115.340;2023-08-30T13:58:42;11.90;;;7.00;;
74538;SDS011;66042;51.090;-115.340;2023-08-30T14:01:10;12.30;;;7.10;;
74538;SDS011;66042;51.090;-115.340;2023-08-30T14:03:37;12.90;;;7.20;;
74538;SDS011;66042;51.090;-115.340;2023-08-30T14:06:04;14.70;;;7.90;;
74538;SDS011;66042;51.090;-115.340;2023-08-30T14:08:31;12.30;;;8.00;;